sensor_id;sensor_type;location;lat;lon;timestamp;P1;durP1;ratioP1;P2;durP2;ratioP2
5876;SDS011;2964;42.144;24.730;2022-07-18T00:01:54;3.75;;;3.35;;
5876;SDS011;2964;42.144;24.730;2022-07-18T00:04:21;3.17;;;2.97;;
5876;SDS011;2964;42.144;24.730;2022-07-18T00:06:47;3.85;;;3.33;;
5876;SDS011;2964;42.144;24.730;2022-07-18T00:09:14;3.17;;;3.00;;
5876;SDS011;2964;42.144;24.730;2022-07-18T00:11:41;3.60;;;3.40;;
5876;SDS011;2964;42.144;24.730;2022-07-18T00:14:08;3.80;;;3.55;;
5876;SDS011;2964;42.144;24.730;2022-07-18T00:16:36;3.65;;;3.42;;
5876;SDS011;2964;42.144;24.730;2022-07-18T00:19:03;3.25;;;3.08;;
5876;SDS011;2964;42.144;24.730;2022-07-18T00:21:31;6.05;;;3.25;;
5876;SDS011;2964;42.144;24.730;2022-07-18T00:23:58;5.68;;;2.85;;
5876;SDS011;2964;42.144;24.730;2022-07-18T00:26:25;2.63;;;2.47;;
5876;SDS011;2964;42.144;24.730;2022-07-18T00:28:51;3.45;;;3.10;;
5876;SDS011;2964;42.144;24.730;2022-07-18T00:31:18;5.75;;;2.75;;
5876;SDS011;2964;42.144;24.730;2022-07-18T00:33:46;2.80;;;2.58;;
5876;SDS011;2964;42.144;24.730;2022-07-18T00:36:13;6.30;;;2.53;;
5876;SDS011;2964;42.144;24.730;2022-07-18T00:38:39;3.33;;;3.03;;
5876;SDS011;2964;42.144;24.730;2022-07-18T00:41:06;2.90;;;2.47;;
5876;SDS011;2964;42.144;24.730;2022-07-18T00:43:33;2.75;;;2.47;;
5876;SDS011;2964;42.144;24.730;2022-07-18T00:46:00;3.07;;;2.87;;
5876;SDS011;2964;42.144;24.730;2022-07-18T00:48:27;4.20;;;2.80;;
5876;SDS011;2964;42.144;24.730;2022-07-18T00:50:55;4.93;;;2.83;;
5876;SDS011;2964;42.144;24.730;2022-07-18T00:53:21;3.43;;;2.30;;
5876;SDS011;2964;42.144;24.730;2022-07-18T00:55:49;2.70;;;2.60;;
5876;SDS011;2964;42.144;24.730;2022-07-18T00:58:18;5.97;;;2.60;;
5876;SDS011;2964;42.144;24.730;2022-07-18T01:00:45;2.77;;;2.67;;
5876;SDS011;2964;42.144;24.730;2022-07-18T01:03:29;5.87;;;2.50;;
5876;SDS011;2964;42.144;24.730;2022-07-18T01:05:57;2.50;;;2.30;;
5876;SDS011;2964;42.144;24.730;2022-07-18T01:08:24;2.83;;;2.53;;
5876;SDS011;2964;42.144;24.730;2022-07-18T01:10:51;3.67;;;2.70;;
5876;SDS011;2964;42.144;24.730;2022-07-18T01:13:19;2.50;;;2.30;;
5876;SDS011;2964;42.144;24.730;2022-07-18T01:15:45;2.50;;;2.40;;
5876;SDS011;2964;42.144;24.730;2022-07-18T01:18:12;5.00;;;2.73;;
5876;SDS011;2964;42.144;24.730;2022-07-18T01:20:40;3.20;;;2.77;;
5876;SDS011;2964;42.144;24.730;2022-07-18T01:23:07;3.20;;;3.00;;
5876;SDS011;2964;42.144;24.730;2022-07-18T01:25:34;2.87;;;2.60;;
5876;SDS011;2964;42.144;24.730;2022-07-18T01:28:01;3.03;;;2.40;;
5876;SDS011;2964;42.144;24.730;2022-07-18T01:30:28;7.13;;;2.50;;
5876;SDS011;2964;42.144;24.730;2022-07-18T01:32:55;2.87;;;2.70;;
5876;SDS011;2964;42.144;24.730;2022-07-18T01:35:23;2.60;;;2.40;;
5876;SDS011;2964;42.144;24.730;2022-07-18T01:37:52;3.10;;;2.90;;
5876;SDS011;2964;42.144;24.730;2022-07-18T01:40:20;4.00;;;2.57;;
5876;SDS011;2964;42.144;24.730;2022-07-18T01:42:47;4.23;;;2.90;;
5876;SDS011;2964;42.144;24.730;2022-07-18T01:45:14;3.13;;;2.67;;
5876;SDS011;2964;42.144;24.730;2022-07-18T01:47:41;3.07;;;2.57;;
5876;SDS011;2964;42.144;24.730;2022-07-18T01:50:09;3.77;;;2.70;;
5876;SDS011;2964;42.144;24.730;2022-07-18T01:52:37;2.53;;;2.43;;
5876;SDS011;2964;42.144;24.730;2022-07-18T01:55:06;3.97;;;2.37;;
5876;SDS011;2964;42.144;24.730;2022-07-18T01:57:34;4.60;;;2.37;;
5876;SDS011;2964;42.144;24.730;2022-07-18T02:00:01;3.27;;;2.97;;
5876;SDS011;2964;42.144;24.730;2022-07-18T02:02:29;2.67;;;2.57;;
5876;SDS011;2964;42.144;24.730;2022-07-18T02:04:56;3.27;;;2.50;;
5876;SDS011;2964;42.144;24.730;2022-07-18T02:07:26;4.80;;;3.00;;
5876;SDS011;2964;42.144;24.730;2022-07-18T02:09:53;5.93;;;3.00;;
5876;SDS011;2964;42.144;24.730;2022-07-18T02:12:22;4.93;;;2.50;;
5876;SDS011;2964;42.144;24.730;2022-07-18T02:14:48;3.50;;;3.10;;
5876;SDS011;2964;42.144;24.730;2022-07-18T02:17:16;5.50;;;2.87;;
5876;SDS011;2964;42.144;24.730;2022-07-18T02:19:44;2.90;;;2.70;;
5876;SDS011;2964;42.144;24.730;2022-07-18T02:22:10;5.00;;;2.70;;
5876;SDS011;2964;42.144;24.730;2022-07-18T02:24:37;12.57;;;3.10;;
5876;SDS011;2964;42.144;24.730;2022-07-18T02:27:04;2.90;;;2.70;;
5876;SDS011;2964;42.144;24.730;2022-07-18T02:29:32;6.57;;;2.90;;
5876;SDS011;2964;42.144;24.730;2022-07-18T02:31:59;3.13;;;3.03;;
5876;SDS011;2964;42.144;24.730;2022-07-18T02:34:26;3.00;;;2.90;;
5876;SDS011;2964;42.144;24.730;2022-07-18T02:36:52;3.90;;;3.17;;
5876;SDS011;2964;42.144;24.730;2022-07-18T02:39:19;2.93;;;2.70;;
5876;SDS011;2964;42.144;24.730;2022-07-18T02:41:46;3.53;;;3.23;;
5876;SDS011;2964;42.144;24.730;2022-07-18T02:44:13;3.23;;;2.90;;
5876;SDS011;2964;42.144;24.730;2022-07-18T02:46:41;7.73;;;3.03;;
5876;SDS011;2964;42.144;24.730;2022-07-18T02:49:08;3.07;;;2.97;;
5876;SDS011;2964;42.144;24.730;2022-07-18T02:51:51;3.10;;;2.90;;
5876;SDS011;2964;42.144;24.730;2022-07-18T02:54:18;6.40;;;3.30;;
5876;SDS011;2964;42.144;24.730;2022-07-18T02:56:45;3.90;;;2.80;;
5876;SDS011;2964;42.144;24.730;2022-07-18T02:59:12;3.20;;;3.00;;
5876;SDS011;2964;42.144;24.730;2022-07-18T03:01:39;3.13;;;2.93;;
5876;SDS011;2964;42.144;24.730;2022-07-18T03:04:07;3.10;;;2.90;;
5876;SDS011;2964;42.144;24.730;2022-07-18T03:06:34;4.47;;;3.30;;
5876;SDS011;2964;42.144;24.730;2022-07-18T03:09:01;3.60;;;3.40;;
5876;SDS011;2964;42.144;24.730;2022-07-18T03:11:28;4.30;;;3.20;;
5876;SDS011;2964;42.144;24.730;2022-07-18T03:13:54;3.10;;;2.90;;
5876;SDS011;2964;42.144;24.730;2022-07-18T03:16:21;4.67;;;2.50;;
5876;SDS011;2964;42.144;24.730;2022-07-18T03:18:48;4.43;;;3.07;;
5876;SDS011;2964;42.144;24.730;2022-07-18T03:21:16;3.73;;;2.87;;
5876;SDS011;2964;42.144;24.730;2022-07-18T03:23:43;6.57;;;2.70;;
5876;SDS011;2964;42.144;24.730;2022-07-18T03:26:09;3.10;;;2.80;;
5876;SDS011;2964;42.144;24.730;2022-07-18T03:28:36;7.00;;;3.00;;
5876;SDS011;2964;42.144;24.730;2022-07-18T03:31:03;3.40;;;2.80;;
5876;SDS011;2964;42.144;24.730;2022-07-18T03:33:30;2.60;;;2.40;;
5876;SDS011;2964;42.144;24.730;2022-07-18T03:35:57;3.27;;;2.97;;
5876;SDS011;2964;42.144;24.730;2022-07-18T03:38:25;3.97;;;2.83;;
5876;SDS011;2964;42.144;24.730;2022-07-18T03:40:52;3.67;;;3.37;;
5876;SDS011;2964;42.144;24.730;2022-07-18T03:43:18;3.33;;;2.43;;
5876;SDS011;2964;42.144;24.730;2022-07-18T03:45:46;3.53;;;2.57;;
5876;SDS011;2964;42.144;24.730;2022-07-18T03:48:13;3.40;;;2.77;;
5876;SDS011;2964;42.144;24.730;2022-07-18T03:50:40;4.10;;;2.50;;
5876;SDS011;2964;42.144;24.730;2022-07-18T03:53:07;8.90;;;2.53;;
5876;SDS011;2964;42.144;24.730;2022-07-18T03:55:35;3.60;;;2.67;;
5876;SDS011;2964;42.144;24.730;2022-07-18T03:58:02;3.40;;;2.30;;
5876;SDS011;2964;42.144;24.730;2022-07-18T04:00:29;6.37;;;3.00;;
5876;SDS011;2964;42.144;24.730;2022-07-18T04:02:55;3.50;;;2.70;;
5876;SDS011;2964;42.144;24.730;2022-07-18T04:05:22;4.93;;;3.00;;
5876;SDS011;2964;42.144;24.730;2022-07-18T04:07:49;4.70;;;2.90;;
5876;SDS011;2964;42.144;24.730;2022-07-18T04:10:15;3.07;;;2.50;;
5876;SDS011;2964;42.144;24.730;2022-07-18T04:12:47;4.23;;;3.60;;
5876;SDS011;2964;42.144;24.730;2022-07-18T04:15:15;3.10;;;2.83;;
5876;SDS011;2964;42.144;24.730;2022-07-18T04:17:41;5.43;;;3.03;;
5876;SDS011;2964;42.144;24.730;2022-07-18T04:20:09;5.53;;;3.20;;
5876;SDS011;2964;42.144;24.730;2022-07-18T04:22:47;4.30;;;2.70;;
5876;SDS011;2964;42.144;24.730;2022-07-18T04:25:16;6.97;;;2.47;;
5876;SDS011;2964;42.144;24.730;2022-07-18T04:27:44;3.93;;;2.67;;
5876;SDS011;2964;42.144;24.730;2022-07-18T04:30:13;4.83;;;2.70;;
5876;SDS011;2964;42.144;24.730;2022-07-18T04:32:41;3.88;;;3.13;;
5876;SDS011;2964;42.144;24.730;2022-07-18T04:35:08;5.40;;;2.67;;
5876;SDS011;2964;42.144;24.730;2022-07-18T04:37:36;3.67;;;3.17;;
5876;SDS011;2964;42.144;24.730;2022-07-18T04:40:04;6.70;;;3.65;;
5876;SDS011;2964;42.144;24.730;2022-07-18T04:42:32;6.07;;;3.58;;
5876;SDS011;2964;42.144;24.730;2022-07-18T04:44:59;4.90;;;4.40;;
5876;SDS011;2964;42.144;24.730;2022-07-18T04:47:27;6.95;;;3.35;;
5876;SDS011;2964;42.144;24.730;2022-07-18T04:49:54;3.05;;;2.85;;
5876;SDS011;2964;42.144;24.730;2022-07-18T04:52:21;5.05;;;2.72;;
5876;SDS011;2964;42.144;24.730;2022-07-18T04:54:49;3.95;;;2.83;;
5876;SDS011;2964;42.144;24.730;2022-07-18T04:57:16;2.92;;;2.72;;
5876;SDS011;2964;42.144;24.730;2022-07-18T04:59:43;5.35;;;4.95;;
5876;SDS011;2964;42.144;24.730;2022-07-18T05:02:11;3.65;;;3.35;;
5876;SDS011;2964;42.144;24.730;2022-07-18T05:04:40;6.22;;;3.22;;
5876;SDS011;2964;42.144;24.730;2022-07-18T05:07:07;5.32;;;3.10;;
5876;SDS011;2964;42.144;24.730;2022-07-18T05:09:33;6.32;;;2.85;;
5876;SDS011;2964;42.144;24.730;2022-07-18T05:12:00;5.40;;;3.47;;
5876;SDS011;2964;42.144;24.730;2022-07-18T05:14:27;3.33;;;2.72;;
5876;SDS011;2964;42.144;24.730;2022-07-18T05:16:54;14.52;;;3.78;;
5876;SDS011;2964;42.144;24.730;2022-07-18T05:19:21;4.07;;;3.65;;
5876;SDS011;2964;42.144;24.730;2022-07-18T05:21:49;4.28;;;3.88;;
5876;SDS011;2964;42.144;24.730;2022-07-18T05:24:16;3.28;;;3.17;;
5876;SDS011;2964;42.144;24.730;2022-07-18T05:26:43;4.40;;;4.07;;
5876;SDS011;2964;42.144;24.730;2022-07-18T05:29:10;4.45;;;3.13;;
5876;SDS011;2964;42.144;24.730;2022-07-18T05:31:38;4.15;;;3.67;;
5876;SDS011;2964;42.144;24.730;2022-07-18T05:34:05;3.50;;;3.40;;
5876;SDS011;2964;42.144;24.730;2022-07-18T05:36:32;5.40;;;2.88;;
5876;SDS011;2964;42.144;24.730;2022-07-18T05:39:01;5.15;;;3.42;;
5876;SDS011;2964;42.144;24.730;2022-07-18T05:41:28;5.47;;;3.03;;
5876;SDS011;2964;42.144;24.730;2022-07-18T05:43:55;4.53;;;4.13;;
5876;SDS011;2964;42.144;24.730;2022-07-18T05:46:22;7.55;;;3.67;;
5876;SDS011;2964;42.144;24.730;2022-07-18T05:48:49;7.18;;;4.03;;
5876;SDS011;2964;42.144;24.730;2022-07-18T05:51:16;4.20;;;3.88;;
5876;SDS011;2964;42.144;24.730;2022-07-18T05:53:43;4.35;;;3.55;;
5876;SDS011;2964;42.144;24.730;2022-07-18T05:56:12;6.45;;;5.40;;
5876;SDS011;2964;42.144;24.730;2022-07-18T05:58:38;5.53;;;4.63;;
5876;SDS011;2964;42.144;24.730;2022-07-18T06:01:05;4.45;;;3.80;;
5876;SDS011;2964;42.144;24.730;2022-07-18T06:03:33;7.57;;;4.28;;
5876;SDS011;2964;42.144;24.730;2022-07-18T06:05:59;6.93;;;4.47;;
5876;SDS011;2964;42.144;24.730;2022-07-18T06:08:26;5.47;;;5.18;;
5876;SDS011;2964;42.144;24.730;2022-07-18T06:10:53;7.72;;;5.28;;
5876;SDS011;2964;42.144;24.730;2022-07-18T06:13:21;5.32;;;4.82;;
5876;SDS011;2964;42.144;24.730;2022-07-18T06:15:48;7.07;;;6.35;;
5876;SDS011;2964;42.144;24.730;2022-07-18T06:18:14;6.80;;;4.28;;
5876;SDS011;2964;42.144;24.730;2022-07-18T06:20:41;5.22;;;4.68;;
5876;SDS011;2964;42.144;24.730;2022-07-18T06:23:08;6.10;;;5.55;;
5876;SDS011;2964;42.144;24.730;2022-07-18T06:25:35;5.53;;;5.03;;
5876;SDS011;2964;42.144;24.730;2022-07-18T06:28:01;5.18;;;4.40;;
5876;SDS011;2964;42.144;24.730;2022-07-18T06:30:29;4.60;;;4.40;;
5876;SDS011;2964;42.144;24.730;2022-07-18T06:32:56;5.32;;;4.38;;
5876;SDS011;2964;42.144;24.730;2022-07-18T06:35:23;4.85;;;4.18;;
5876;SDS011;2964;42.144;24.730;2022-07-18T06:37:50;4.07;;;3.78;;
5876;SDS011;2964;42.144;24.730;2022-07-18T06:40:16;4.13;;;3.83;;
5876;SDS011;2964;42.144;24.730;2022-07-18T06:42:43;8.18;;;5.70;;
5876;SDS011;2964;42.144;24.730;2022-07-18T06:45:11;10.93;;;9.98;;
5876;SDS011;2964;42.144;24.730;2022-07-18T06:47:39;7.38;;;5.28;;
5876;SDS011;2964;42.144;24.730;2022-07-18T06:50:07;3.95;;;3.65;;
5876;SDS011;2964;42.144;24.730;2022-07-18T06:52:35;4.80;;;4.43;;
5876;SDS011;2964;42.144;24.730;2022-07-18T06:55:03;6.28;;;5.72;;
5876;SDS011;2964;42.144;24.730;2022-07-18T06:57:30;5.28;;;4.93;;
5876;SDS011;2964;42.144;24.730;2022-07-18T06:59:57;4.60;;;4.22;;
5876;SDS011;2964;42.144;24.730;2022-07-18T07:02:24;5.90;;;5.07;;
5876;SDS011;2964;42.144;24.730;2022-07-18T07:04:52;4.45;;;4.05;;
5876;SDS011;2964;42.144;24.730;2022-07-18T07:07:19;5.53;;;4.13;;
5876;SDS011;2964;42.144;24.730;2022-07-18T07:09:46;10.77;;;5.03;;
5876;SDS011;2964;42.144;24.730;2022-07-18T07:12:12;5.43;;;3.72;;
5876;SDS011;2964;42.144;24.730;2022-07-18T07:14:39;5.65;;;5.15;;
5876;SDS011;2964;42.144;24.730;2022-07-18T07:17:06;3.83;;;3.63;;
5876;SDS011;2964;42.144;24.730;2022-07-18T07:19:33;4.30;;;4.10;;
5876;SDS011;2964;42.144;24.730;2022-07-18T07:22:01;7.80;;;4.95;;
5876;SDS011;2964;42.144;24.730;2022-07-18T07:24:27;4.40;;;4.10;;
5876;SDS011;2964;42.144;24.730;2022-07-18T07:26:54;7.30;;;4.72;;
5876;SDS011;2964;42.144;24.730;2022-07-18T07:29:21;5.03;;;4.38;;
5876;SDS011;2964;42.144;24.730;2022-07-18T07:31:48;6.25;;;5.75;;
5876;SDS011;2964;42.144;24.730;2022-07-18T07:34:14;95.03;;;10.95;;
5876;SDS011;2964;42.144;24.730;2022-07-18T07:36:41;5.97;;;5.68;;
5876;SDS011;2964;42.144;24.730;2022-07-18T07:39:09;6.10;;;5.70;;
5876;SDS011;2964;42.144;24.730;2022-07-18T07:41:36;8.57;;;6.13;;
5876;SDS011;2964;42.144;24.730;2022-07-18T07:44:03;7.30;;;5.18;;
5876;SDS011;2964;42.144;24.730;2022-07-18T07:46:30;5.32;;;4.80;;
5876;SDS011;2964;42.144;24.730;2022-07-18T07:48:57;8.48;;;5.22;;
5876;SDS011;2964;42.144;24.730;2022-07-18T07:51:24;6.13;;;5.65;;
5876;SDS011;2964;42.144;24.730;2022-07-18T07:53:52;7.47;;;5.57;;
5876;SDS011;2964;42.144;24.730;2022-07-18T07:56:20;5.72;;;5.40;;
5876;SDS011;2964;42.144;24.730;2022-07-18T07:58:47;9.93;;;5.10;;
5876;SDS011;2964;42.144;24.730;2022-07-18T08:01:14;6.05;;;5.68;;
5876;SDS011;2964;42.144;24.730;2022-07-18T08:03:42;5.43;;;4.93;;
5876;SDS011;2964;42.144;24.730;2022-07-18T08:06:10;4.85;;;4.45;;
5876;SDS011;2964;42.144;24.730;2022-07-18T08:08:37;6.38;;;5.65;;
5876;SDS011;2964;42.144;24.730;2022-07-18T08:11:03;5.63;;;4.85;;
5876;SDS011;2964;42.144;24.730;2022-07-18T08:13:31;3.78;;;3.47;;
5876;SDS011;2964;42.144;24.730;2022-07-18T08:15:58;5.10;;;4.90;;
5876;SDS011;2964;42.144;24.730;2022-07-18T08:18:25;5.70;;;5.40;;
5876;SDS011;2964;42.144;24.730;2022-07-18T08:20:52;5.68;;;5.07;;
5876;SDS011;2964;42.144;24.730;2022-07-18T08:23:19;4.28;;;4.07;;
5876;SDS011;2964;42.144;24.730;2022-07-18T08:25:46;7.68;;;4.47;;
5876;SDS011;2964;42.144;24.730;2022-07-18T08:28:13;5.55;;;5.03;;
5876;SDS011;2964;42.144;24.730;2022-07-18T08:30:41;5.10;;;4.50;;
5876;SDS011;2964;42.144;24.730;2022-07-18T08:33:08;5.28;;;4.53;;
5876;SDS011;2964;42.144;24.730;2022-07-18T08:35:35;5.05;;;4.70;;
5876;SDS011;2964;42.144;24.730;2022-07-18T08:38:02;4.85;;;4.25;;
5876;SDS011;2964;42.144;24.730;2022-07-18T08:40:30;4.07;;;3.78;;
5876;SDS011;2964;42.144;24.730;2022-07-18T08:42:57;4.97;;;4.68;;
5876;SDS011;2964;42.144;24.730;2022-07-18T08:45:25;13.05;;;4.70;;
5876;SDS011;2964;42.144;24.730;2022-07-18T08:47:53;5.50;;;5.07;;
5876;SDS011;2964;42.144;24.730;2022-07-18T08:50:20;6.10;;;5.70;;
5876;SDS011;2964;42.144;24.730;2022-07-18T08:52:47;4.28;;;4.00;;
5876;SDS011;2964;42.144;24.730;2022-07-18T08:55:14;5.85;;;5.20;;
5876;SDS011;2964;42.144;24.730;2022-07-18T08:57:41;8.73;;;4.80;;
5876;SDS011;2964;42.144;24.730;2022-07-18T09:00:09;5.15;;;4.78;;
5876;SDS011;2964;42.144;24.730;2022-07-18T09:02:37;5.70;;;5.18;;
5876;SDS011;2964;42.144;24.730;2022-07-18T09:05:05;6.82;;;4.57;;
5876;SDS011;2964;42.144;24.730;2022-07-18T09:07:43;5.60;;;4.78;;
5876;SDS011;2964;42.144;24.730;2022-07-18T09:10:10;8.95;;;3.72;;
5876;SDS011;2964;42.144;24.730;2022-07-18T09:12:37;7.20;;;4.72;;
5876;SDS011;2964;42.144;24.730;2022-07-18T09:15:04;4.30;;;3.75;;
5876;SDS011;2964;42.144;24.730;2022-07-18T09:17:32;6.03;;;4.00;;
5876;SDS011;2964;42.144;24.730;2022-07-18T09:20:01;5.75;;;5.15;;
5876;SDS011;2964;42.144;24.730;2022-07-18T09:22:32;4.07;;;3.88;;
5876;SDS011;2964;42.144;24.730;2022-07-18T09:25:04;4.70;;;3.97;;
5876;SDS011;2964;42.144;24.730;2022-07-18T09:27:35;7.03;;;5.22;;
5876;SDS011;2964;42.144;24.730;2022-07-18T09:30:10;5.32;;;4.40;;
5876;SDS011;2964;42.144;24.730;2022-07-18T09:32:52;5.32;;;4.53;;
5876;SDS011;2964;42.144;24.730;2022-07-18T09:35:22;5.47;;;4.93;;
5876;SDS011;2964;42.144;24.730;2022-07-18T09:38:03;5.38;;;4.97;;
5876;SDS011;2964;42.144;24.730;2022-07-18T09:40:33;5.07;;;4.72;;
5876;SDS011;2964;42.144;24.730;2022-07-18T09:43:01;3.97;;;3.63;;
5876;SDS011;2964;42.144;24.730;2022-07-18T09:45:31;6.32;;;4.95;;
5876;SDS011;2964;42.144;24.730;2022-07-18T09:47:59;6.57;;;6.07;;
5876;SDS011;2964;42.144;24.730;2022-07-18T09:50:31;5.50;;;5.18;;
5876;SDS011;2964;42.144;24.730;2022-07-18T09:53:11;4.65;;;4.28;;
5876;SDS011;2964;42.144;24.730;2022-07-18T09:55:43;5.18;;;4.90;;
5876;SDS011;2964;42.144;24.730;2022-07-18T09:58:14;5.43;;;5.00;;
5876;SDS011;2964;42.144;24.730;2022-07-18T10:00:43;6.15;;;5.75;;
5876;SDS011;2964;42.144;24.730;2022-07-18T10:03:11;4.95;;;4.65;;
5876;SDS011;2964;42.144;24.730;2022-07-18T10:05:38;4.20;;;3.90;;
5876;SDS011;2964;42.144;24.730;2022-07-18T10:08:06;5.43;;;5.03;;
5876;SDS011;2964;42.144;24.730;2022-07-18T10:10:36;5.30;;;4.95;;
5876;SDS011;2964;42.144;24.730;2022-07-18T10:13:04;5.30;;;4.30;;
5876;SDS011;2964;42.144;24.730;2022-07-18T10:15:33;6.00;;;5.50;;
5876;SDS011;2964;42.144;24.730;2022-07-18T10:18:02;6.00;;;5.50;;
5876;SDS011;2964;42.144;24.730;2022-07-18T10:20:33;5.10;;;4.38;;
5876;SDS011;2964;42.144;24.730;2022-07-18T10:23:14;4.95;;;4.55;;
5876;SDS011;2964;42.144;24.730;2022-07-18T10:25:44;5.80;;;5.40;;
5876;SDS011;2964;42.144;24.730;2022-07-18T10:28:29;5.38;;;5.10;;
5876;SDS011;2964;42.144;24.730;2022-07-18T10:30:57;6.65;;;5.20;;
5876;SDS011;2964;42.144;24.730;2022-07-18T10:33:39;5.20;;;4.80;;
5876;SDS011;2964;42.144;24.730;2022-07-18T10:36:09;6.65;;;6.25;;
5876;SDS011;2964;42.144;24.730;2022-07-18T10:38:38;4.90;;;4.70;;
5876;SDS011;2964;42.144;24.730;2022-07-18T10:41:08;7.68;;;5.05;;
5876;SDS011;2964;42.144;24.730;2022-07-18T10:43:38;4.57;;;3.97;;
5876;SDS011;2964;42.144;24.730;2022-07-18T10:46:10;4.63;;;3.88;;
5876;SDS011;2964;42.144;24.730;2022-07-18T10:48:48;4.78;;;4.38;;
5876;SDS011;2964;42.144;24.730;2022-07-18T10:51:16;5.68;;;5.32;;
5876;SDS011;2964;42.144;24.730;2022-07-18T10:59:39;5.68;;;4.88;;
5876;SDS011;2964;42.144;24.730;2022-07-18T11:02:35;4.82;;;4.43;;
5876;SDS011;2964;42.144;24.730;2022-07-18T11:08:19;4.78;;;4.47;;
5876;SDS011;2964;42.144;24.730;2022-07-18T11:13:37;6.88;;;4.72;;
5876;SDS011;2964;42.144;24.730;2022-07-18T11:16:08;5.07;;;4.63;;
5876;SDS011;2964;42.144;24.730;2022-07-18T11:21:55;4.90;;;4.57;;
5876;SDS011;2964;42.144;24.730;2022-07-18T11:24:23;4.70;;;4.30;;
5876;SDS011;2964;42.144;24.730;2022-07-18T11:26:51;5.40;;;4.25;;
5876;SDS011;2964;42.144;24.730;2022-07-18T11:29:20;7.75;;;5.72;;
5876;SDS011;2964;42.144;24.730;2022-07-18T11:31:47;5.35;;;5.05;;
5876;SDS011;2964;42.144;24.730;2022-07-18T11:34:15;4.70;;;4.30;;
5876;SDS011;2964;42.144;24.730;2022-07-18T11:36:43;7.80;;;5.28;;
5876;SDS011;2964;42.144;24.730;2022-07-18T11:39:12;4.95;;;4.57;;
5876;SDS011;2964;42.144;24.730;2022-07-18T11:41:40;5.30;;;4.95;;
5876;SDS011;2964;42.144;24.730;2022-07-18T11:44:15;5.13;;;4.63;;
5876;SDS011;2964;42.144;24.730;2022-07-18T11:46:44;5.13;;;4.82;;
5876;SDS011;2964;42.144;24.730;2022-07-18T11:49:11;6.85;;;6.35;;
5876;SDS011;2964;42.144;24.730;2022-07-18T11:51:39;6.43;;;5.97;;
5876;SDS011;2964;42.144;24.730;2022-07-18T11:54:07;5.30;;;5.00;;
5876;SDS011;2964;42.144;24.730;2022-07-18T11:56:44;7.40;;;4.55;;
5876;SDS011;2964;42.144;24.730;2022-07-18T11:59:12;8.00;;;6.13;;
5876;SDS011;2964;42.144;24.730;2022-07-18T12:01:40;6.00;;;5.53;;
5876;SDS011;2964;42.144;24.730;2022-07-18T12:04:15;5.43;;;5.10;;
5876;SDS011;2964;42.144;24.730;2022-07-18T12:06:44;5.25;;;4.85;;
5876;SDS011;2964;42.144;24.730;2022-07-18T12:09:12;4.85;;;4.40;;
5876;SDS011;2964;42.144;24.730;2022-07-18T12:11:38;5.80;;;4.97;;
5876;SDS011;2964;42.144;24.730;2022-07-18T12:14:13;5.18;;;4.78;;
5876;SDS011;2964;42.144;24.730;2022-07-18T12:16:41;4.68;;;4.28;;
5876;SDS011;2964;42.144;24.730;2022-07-18T12:19:09;5.53;;;5.03;;
5876;SDS011;2964;42.144;24.730;2022-07-18T12:21:39;5.20;;;4.70;;
5876;SDS011;2964;42.144;24.730;2022-07-18T12:27:13;5.13;;;4.82;;
5876;SDS011;2964;42.144;24.730;2022-07-18T12:29:54;5.35;;;4.95;;
5876;SDS011;2964;42.144;24.730;2022-07-18T12:32:28;6.22;;;5.43;;
5876;SDS011;2964;42.144;24.730;2022-07-18T12:34:56;4.80;;;4.47;;
5876;SDS011;2964;42.144;24.730;2022-07-18T12:37:25;6.03;;;5.47;;
5876;SDS011;2964;42.144;24.730;2022-07-18T12:39:58;5.07;;;4.65;;
5876;SDS011;2964;42.144;24.730;2022-07-18T12:42:29;5.78;;;5.38;;
5876;SDS011;2964;42.144;24.730;2022-07-18T12:44:58;6.03;;;5.55;;
5876;SDS011;2964;42.144;24.730;2022-07-18T12:47:25;5.15;;;4.55;;
5876;SDS011;2964;42.144;24.730;2022-07-18T12:49:52;4.63;;;4.43;;
5876;SDS011;2964;42.144;24.730;2022-07-18T12:52:19;6.10;;;4.70;;
5876;SDS011;2964;42.144;24.730;2022-07-18T12:54:47;7.43;;;4.68;;
5876;SDS011;2964;42.144;24.730;2022-07-18T12:57:14;4.80;;;4.40;;
5876;SDS011;2964;42.144;24.730;2022-07-18T12:59:41;5.15;;;4.70;;
5876;SDS011;2964;42.144;24.730;2022-07-18T13:02:08;4.53;;;4.03;;
5876;SDS011;2964;42.144;24.730;2022-07-18T13:04:36;5.13;;;4.70;;
5876;SDS011;2964;42.144;24.730;2022-07-18T13:07:03;7.72;;;5.30;;
5876;SDS011;2964;42.144;24.730;2022-07-18T13:09:31;9.50;;;5.47;;
5876;SDS011;2964;42.144;24.730;2022-07-18T13:12:00;5.97;;;4.78;;
5876;SDS011;2964;42.144;24.730;2022-07-18T13:14:27;5.35;;;4.90;;
5876;SDS011;2964;42.144;24.730;2022-07-18T13:16:54;5.15;;;4.82;;
5876;SDS011;2964;42.144;24.730;2022-07-18T13:19:21;5.00;;;4.60;;
5876;SDS011;2964;42.144;24.730;2022-07-18T13:21:48;5.38;;;4.95;;
5876;SDS011;2964;42.144;24.730;2022-07-18T13:24:15;5.25;;;4.90;;
5876;SDS011;2964;42.144;24.730;2022-07-18T13:26:42;5.88;;;5.32;;
5876;SDS011;2964;42.144;24.730;2022-07-18T13:29:10;4.85;;;4.55;;
5876;SDS011;2964;42.144;24.730;2022-07-18T13:31:37;8.73;;;5.10;;
5876;SDS011;2964;42.144;24.730;2022-07-18T13:34:04;6.25;;;5.22;;
5876;SDS011;2964;42.144;24.730;2022-07-18T13:36:31;10.63;;;4.70;;
5876;SDS011;2964;42.144;24.730;2022-07-18T13:38:58;5.47;;;5.18;;
5876;SDS011;2964;42.144;24.730;2022-07-18T13:41:27;5.30;;;4.85;;
5876;SDS011;2964;42.144;24.730;2022-07-18T13:43:54;7.57;;;5.47;;
5876;SDS011;2964;42.144;24.730;2022-07-18T13:46:23;6.63;;;5.63;;
5876;SDS011;2964;42.144;24.730;2022-07-18T13:48:49;5.68;;;5.10;;
5876;SDS011;2964;42.144;24.730;2022-07-18T13:51:17;5.03;;;4.65;;
5876;SDS011;2964;42.144;24.730;2022-07-18T13:53:43;6.80;;;6.30;;
5876;SDS011;2964;42.144;24.730;2022-07-18T13:56:10;6.13;;;5.55;;
5876;SDS011;2964;42.144;24.730;2022-07-18T13:58:37;7.10;;;5.25;;
5876;SDS011;2964;42.144;24.730;2022-07-18T14:01:05;5.60;;;5.22;;
5876;SDS011;2964;42.144;24.730;2022-07-18T14:03:33;7.13;;;5.80;;
5876;SDS011;2964;42.144;24.730;2022-07-18T14:06:00;7.30;;;5.10;;
5876;SDS011;2964;42.144;24.730;2022-07-18T14:08:27;6.15;;;5.03;;
5876;SDS011;2964;42.144;24.730;2022-07-18T14:10:54;5.30;;;5.10;;
5876;SDS011;2964;42.144;24.730;2022-07-18T14:13:20;6.30;;;5.90;;
5876;SDS011;2964;42.144;24.730;2022-07-18T14:15:47;6.25;;;5.95;;
5876;SDS011;2964;42.144;24.730;2022-07-18T14:18:14;5.63;;;5.32;;
5876;SDS011;2964;42.144;24.730;2022-07-18T14:20:42;5.68;;;5.22;;
5876;SDS011;2964;42.144;24.730;2022-07-18T14:23:09;6.25;;;5.38;;
5876;SDS011;2964;42.144;24.730;2022-07-18T14:25:36;10.38;;;9.38;;
5876;SDS011;2964;42.144;24.730;2022-07-18T14:28:03;6.85;;;6.22;;
5876;SDS011;2964;42.144;24.730;2022-07-18T14:30:30;6.05;;;5.75;;
5876;SDS011;2964;42.144;24.730;2022-07-18T14:32:58;5.75;;;4.65;;
5876;SDS011;2964;42.144;24.730;2022-07-18T14:35:25;6.65;;;5.57;;
5876;SDS011;2964;42.144;24.730;2022-07-18T14:37:53;5.78;;;5.30;;
5876;SDS011;2964;42.144;24.730;2022-07-18T14:40:19;5.90;;;4.90;;
5876;SDS011;2964;42.144;24.730;2022-07-18T14:42:46;4.70;;;4.40;;
5876;SDS011;2964;42.144;24.730;2022-07-18T14:45:13;7.25;;;5.47;;
5876;SDS011;2964;42.144;24.730;2022-07-18T14:47:40;5.20;;;4.90;;
5876;SDS011;2964;42.144;24.730;2022-07-18T14:50:08;6.30;;;4.70;;
5876;SDS011;2964;42.144;24.730;2022-07-18T14:52:36;4.90;;;4.43;;
5876;SDS011;2964;42.144;24.730;2022-07-18T14:55:04;5.93;;;5.38;;
5876;SDS011;2964;42.144;24.730;2022-07-18T14:57:32;5.65;;;5.00;;
5876;SDS011;2964;42.144;24.730;2022-07-18T14:59:59;9.35;;;5.75;;
5876;SDS011;2964;42.144;24.730;2022-07-18T15:02:26;5.03;;;4.55;;
5876;SDS011;2964;42.144;24.730;2022-07-18T15:04:53;6.50;;;5.43;;
5876;SDS011;2964;42.144;24.730;2022-07-18T15:07:19;7.03;;;5.43;;
5876;SDS011;2964;42.144;24.730;2022-07-18T15:09:46;4.75;;;4.38;;
5876;SDS011;2964;42.144;24.730;2022-07-18T15:12:14;4.50;;;4.30;;
5876;SDS011;2964;42.144;24.730;2022-07-18T15:14:41;5.65;;;4.95;;
5876;SDS011;2964;42.144;24.730;2022-07-18T15:17:08;5.55;;;5.25;;
5876;SDS011;2964;42.144;24.730;2022-07-18T15:19:35;5.50;;;4.82;;
5876;SDS011;2964;42.144;24.730;2022-07-18T15:22:02;10.05;;;6.10;;
5876;SDS011;2964;42.144;24.730;2022-07-18T15:24:30;8.25;;;4.88;;